sensor_id;sensor_type;location;lat;lon;timestamp;pressure;altitude;pressure_sealevel;temperature;humidity
22206;BME280;11272;50.104;8.754;2023-02-14T00:01:35;102615.91;;;5.32;68.92
22206;BME280;11272;50.104;8.754;2023-02-14T00:04:01;102613.22;;;5.30;69.00
22206;BME280;11272;50.104;8.754;2023-02-14T00:06:30;102613.19;;;5.29;68.83
22206;BME280;11272;50.104;8.754;2023-02-14T00:08:58;102616.66;;;5.28;68.70
22206;BME280;11272;50.104;8.754;2023-02-14T00:11:24;102620.06;;;5.25;69.22
22206;BME280;11272;50.104;8.754;2023-02-14T00:13:49;102619.06;;;5.22;68.65
22206;BME280;11272;50.104;8.754;2023-02-14T00:16:33;102622.44;;;5.18;69.29
22206;BME280;11272;50.104;8.754;2023-02-14T00:18:59;102622.31;;;5.15;69.19
22206;BME280;11272;50.104;8.754;2023-02-14T00:21:28;102617.72;;;5.09;69.42
22206;BME280;11272;50.104;8.754;2023-02-14T00:23:53;102615.91;;;5.06;69.17
22206;BME280;11272;50.104;8.754;2023-02-14T00:26:19;102614.03;;;5.04;69.50
22206;BME280;11272;50.104;8.754;2023-02-14T00:28:46;102614.84;;;5.01;69.28
22206;BME280;11272;50.104;8.754;2023-02-14T00:31:11;102616.44;;;4.98;69.49
22206;BME280;11272;50.104;8.754;2023-02-14T00:33:37;102611.97;;;4.95;69.72
22206;BME280;11272;50.104;8.754;2023-02-14T00:36:06;102617.13;;;4.92;69.42
22206;BME280;11272;50.104;8.754;2023-02-14T00:38:33;102612.50;;;4.87;69.43
22206;BME280;11272;50.104;8.754;2023-02-14T00:40:59;102614.22;;;4.85;69.74
22206;BME280;11272;50.104;8.754;2023-02-14T00:43:24;102608.81;;;4.82;69.92
22206;BME280;11272;50.104;8.754;2023-02-14T00:45:50;102605.19;;;4.78;70.01
22206;BME280;11272;50.104;8.754;2023-02-14T00:48:16;102605.09;;;4.75;69.99
22206;BME280;11272;50.104;8.754;2023-02-14T00:50:43;102609.38;;;4.73;69.79
22206;BME280;11272;50.104;8.754;2023-02-14T00:53:11;102618.91;;;4.70;70.24
22206;BME280;11272;50.104;8.754;2023-02-14T00:55:37;102608.31;;;4.68;70.19
22206;BME280;11272;50.104;8.754;2023-02-14T00:58:02;102613.50;;;4.66;70.43
22206;BME280;11272;50.104;8.754;2023-02-14T01:00:28;102611.69;;;4.64;70.17
22206;BME280;11272;50.104;8.754;2023-02-14T01:02:54;102616.03;;;4.63;70.01
22206;BME280;11272;50.104;8.754;2023-02-14T01:05:19;102616.81;;;4.61;70.37
22206;BME280;11272;50.104;8.754;2023-02-14T01:07:45;102613.19;;;4.57;70.75
22206;BME280;11272;50.104;8.754;2023-02-14T01:10:11;102612.19;;;4.54;70.61
22206;BME280;11272;50.104;8.754;2023-02-14T01:12:36;102615.56;;;4.51;70.41
22206;BME280;11272;50.104;8.754;2023-02-14T01:15:02;102613.69;;;4.49;70.92
22206;BME280;11272;50.104;8.754;2023-02-14T01:17:28;102618.94;;;4.47;70.87
22206;BME280;11272;50.104;8.754;2023-02-14T01:19:54;102617.03;;;4.43;70.69
22206;BME280;11272;50.104;8.754;2023-02-14T01:22:19;102613.34;;;4.40;70.77
22206;BME280;11272;50.104;8.754;2023-02-14T01:24:45;102617.72;;;4.39;70.75
22206;BME280;11272;50.104;8.754;2023-02-14T01:27:11;102613.25;;;4.37;70.85
22206;BME280;11272;50.104;8.754;2023-02-14T01:29:36;102612.22;;;4.33;70.66
22206;BME280;11272;50.104;8.754;2023-02-14T01:32:02;102609.53;;;4.32;70.79
22206;BME280;11272;50.104;8.754;2023-02-14T01:34:27;102618.25;;;4.31;70.72
22206;BME280;11272;50.104;8.754;2023-02-14T01:36:53;102618.13;;;4.28;70.74
22206;BME280;11272;50.104;8.754;2023-02-14T01:39:18;102618.09;;;4.26;71.06
22206;BME280;11272;50.104;8.754;2023-02-14T01:41:45;102617.13;;;4.24;71.51
22206;BME280;11272;50.104;8.754;2023-02-14T01:46:43;102626.13;;;4.08;71.56
22206;BME280;11272;50.104;8.754;2023-02-14T01:49:16;102615.25;;;3.99;71.51
22206;BME280;11272;50.104;8.754;2023-02-14T01:51:55;102619.44;;;3.94;71.98
22206;BME280;11272;50.104;8.754;2023-02-14T01:54:24;102621.28;;;3.97;71.45
22206;BME280;11272;50.104;8.754;2023-02-14T01:56:56;102615.13;;;3.96;71.50
22206;BME280;11272;50.104;8.754;2023-02-14T01:59:26;102620.13;;;3.90;71.77
22206;BME280;11272;50.104;8.754;2023-02-14T02:01:53;102615.47;;;3.83;71.84
22206;BME280;11272;50.104;8.754;2023-02-14T02:04:25;102623.16;;;3.78;72.33
22206;BME280;11272;50.104;8.754;2023-02-14T02:06:58;102625.78;;;3.78;72.60
22206;BME280;11272;50.104;8.754;2023-02-14T02:09:46;102612.69;;;3.80;72.44
22206;BME280;11272;50.104;8.754;2023-02-14T02:12:14;102617.13;;;3.81;72.17
22206;BME280;11272;50.104;8.754;2023-02-14T02:14:42;102617.19;;;3.83;72.26
22206;BME280;11272;50.104;8.754;2023-02-14T02:23:11;102610.78;;;3.76;72.70
22206;BME280;11272;50.104;8.754;2023-02-14T02:31:50;102608.59;;;3.66;72.55
22206;BME280;11272;50.104;8.754;2023-02-14T02:37:19;102597.00;;;3.61;72.15
22206;BME280;11272;50.104;8.754;2023-02-14T02:46:02;102597.53;;;3.52;72.93
22206;BME280;11272;50.104;8.754;2023-02-14T02:49:22;102599.13;;;3.49;72.77
22206;BME280;11272;50.104;8.754;2023-02-14T02:52:19;102608.69;;;3.47;72.72
22206;BME280;11272;50.104;8.754;2023-02-14T02:55:15;102596.31;;;3.44;72.50
22206;BME280;11272;50.104;8.754;2023-02-14T02:57:45;102601.56;;;3.44;72.85
22206;BME280;11272;50.104;8.754;2023-02-14T03:00:13;102598.84;;;3.43;73.06
22206;BME280;11272;50.104;8.754;2023-02-14T03:02:43;102596.94;;;3.38;72.67
22206;BME280;11272;50.104;8.754;2023-02-14T03:05:31;102612.56;;;3.35;73.08
22206;BME280;11272;50.104;8.754;2023-02-14T03:07:57;102608.97;;;3.33;73.06
22206;BME280;11272;50.104;8.754;2023-02-14T03:10:25;102616.03;;;3.34;73.30
22206;BME280;11272;50.104;8.754;2023-02-14T03:18:37;102620.25;;;3.31;73.62
22206;BME280;11272;50.104;8.754;2023-02-14T03:23:53;102618.47;;;3.30;73.39
22206;BME280;11272;50.104;8.754;2023-02-14T03:29:28;102605.13;;;3.25;73.87
22206;BME280;11272;50.104;8.754;2023-02-14T03:34:53;102604.88;;;3.19;73.60
22206;BME280;11272;50.104;8.754;2023-02-14T03:37:46;102610.94;;;3.18;73.87
22206;BME280;11272;50.104;8.754;2023-02-14T03:40:21;102609.75;;;3.12;74.00
22206;BME280;11272;50.104;8.754;2023-02-14T03:42:53;102612.19;;;3.07;74.08
22206;BME280;11272;50.104;8.754;2023-02-14T03:45:31;102608.59;;;3.05;74.12
22206;BME280;11272;50.104;8.754;2023-02-14T03:48:00;102612.91;;;3.03;73.86
22206;BME280;11272;50.104;8.754;2023-02-14T03:50:29;102613.59;;;2.99;73.88
22206;BME280;11272;50.104;8.754;2023-02-14T03:52:56;102611.53;;;2.92;74.30
22206;BME280;11272;50.104;8.754;2023-02-14T03:55:29;102612.22;;;2.88;74.69
22206;BME280;11272;50.104;8.754;2023-02-14T03:58:06;102614.69;;;2.85;74.51
22206;BME280;11272;50.104;8.754;2023-02-14T04:00:36;102613.75;;;2.83;74.52
22206;BME280;11272;50.104;8.754;2023-02-14T04:03:05;102620.63;;;2.81;74.20
22206;BME280;11272;50.104;8.754;2023-02-14T04:05:36;102623.94;;;2.77;74.39
22206;BME280;11272;50.104;8.754;2023-02-14T04:08:06;102622.00;;;2.73;74.49
22206;BME280;11272;50.104;8.754;2023-02-14T04:10:32;102625.31;;;2.69;74.66
22206;BME280;11272;50.104;8.754;2023-02-14T04:13:00;102621.75;;;2.67;74.92
22206;BME280;11272;50.104;8.754;2023-02-14T04:15:26;102628.63;;;2.65;74.64
22206;BME280;11272;50.104;8.754;2023-02-14T04:17:51;102626.00;;;2.65;74.78
22206;BME280;11272;50.104;8.754;2023-02-14T04:20:36;102633.06;;;2.66;74.87
22206;BME280;11272;50.104;8.754;2023-02-14T04:23:02;102633.97;;;2.66;75.11
22206;BME280;11272;50.104;8.754;2023-02-14T04:25:27;102633.09;;;2.67;75.28
22206;BME280;11272;50.104;8.754;2023-02-14T04:27:53;102637.59;;;2.70;75.23
22206;BME280;11272;50.104;8.754;2023-02-14T04:30:19;102637.59;;;2.70;75.05
22206;BME280;11272;50.104;8.754;2023-02-14T04:32:46;102644.66;;;2.71;75.27
22206;BME280;11272;50.104;8.754;2023-02-14T04:35:11;102642.84;;;2.70;75.39
22206;BME280;11272;50.104;8.754;2023-02-14T04:37:37;102642.78;;;2.68;75.42
22206;BME280;11272;50.104;8.754;2023-02-14T04:40:03;102639.19;;;2.66;75.31
22206;BME280;11272;50.104;8.754;2023-02-14T04:42:29;102644.50;;;2.68;75.89
22206;BME280;11272;50.104;8.754;2023-02-14T04:44:55;102636.69;;;2.69;75.44
22206;BME280;11272;50.104;8.754;2023-02-14T04:47:20;102643.75;;;2.70;75.60
22206;BME280;11272;50.104;8.754;2023-02-14T04:49:46;102643.75;;;2.70;75.80
22206;BME280;11272;50.104;8.754;2023-02-14T04:52:11;102642.09;;;2.72;75.67
22206;BME280;11272;50.104;8.754;2023-02-14T04:54:37;102639.41;;;2.71;75.84
22206;BME280;11272;50.104;8.754;2023-02-14T04:57:03;102638.59;;;2.72;75.95
22206;BME280;11272;50.104;8.754;2023-02-14T04:59:29;102636.88;;;2.72;76.13
22206;BME280;11272;50.104;8.754;2023-02-14T05:01:54;102638.63;;;2.73;76.22
22206;BME280;11272;50.104;8.754;2023-02-14T05:04:20;102646.50;;;2.73;76.44
22206;BME280;11272;50.104;8.754;2023-02-14T05:06:46;102642.31;;;2.77;76.58
22206;BME280;11272;50.104;8.754;2023-02-14T05:09:11;102643.34;;;2.80;76.75
22206;BME280;11272;50.104;8.754;2023-02-14T05:11:37;102647.84;;;2.83;77.03
22206;BME280;11272;50.104;8.754;2023-02-14T05:14:03;102648.06;;;2.87;76.85
22206;BME280;11272;50.104;8.754;2023-02-14T05:16:29;102645.56;;;2.90;77.09
22206;BME280;11272;50.104;8.754;2023-02-14T05:18:57;102645.75;;;2.95;77.12
22206;BME280;11272;50.104;8.754;2023-02-14T05:21:23;102643.34;;;3.00;77.02
22206;BME280;11272;50.104;8.754;2023-02-14T05:23:49;102639.97;;;3.02;77.23
22206;BME280;11272;50.104;8.754;2023-02-14T05:26:14;102641.06;;;3.07;77.31
22206;BME280;11272;50.104;8.754;2023-02-14T05:28:40;102648.94;;;3.07;77.00
22206;BME280;11272;50.104;8.754;2023-02-14T05:31:07;102643.69;;;3.07;77.05
22206;BME280;11272;50.104;8.754;2023-02-14T05:33:35;102645.50;;;3.08;77.10
22206;BME280;11272;50.104;8.754;2023-02-14T05:36:01;102634.16;;;3.09;77.31
22206;BME280;11272;50.104;8.754;2023-02-14T05:38:28;102641.25;;;3.12;77.67
22206;BME280;11272;50.104;8.754;2023-02-14T05:40:54;102640.44;;;3.13;77.39
22206;BME280;11272;50.104;8.754;2023-02-14T05:43:20;102630.91;;;3.15;77.56
22206;BME280;11272;50.104;8.754;2023-02-14T05:45:47;102645.88;;;3.17;77.29
22206;BME280;11272;50.104;8.754;2023-02-14T05:48:13;102638.78;;;3.15;77.76
22206;BME280;11272;50.104;8.754;2023-02-14T05:50:38;102633.38;;;3.12;78.21
22206;BME280;11272;50.104;8.754;2023-02-14T05:53:04;102637.91;;;3.14;78.10
22206;BME280;11272;50.104;8.754;2023-02-14T05:55:30;102638.16;;;3.20;78.01
22206;BME280;11272;50.104;8.754;2023-02-14T05:57:56;102630.28;;;3.20;78.17
22206;BME280;11272;50.104;8.754;2023-02-14T06:00:22;102633.03;;;3.23;78.03
22206;BME280;11272;50.104;8.754;2023-02-14T06:02:49;102638.41;;;3.26;78.23
22206;BME280;11272;50.104;8.754;2023-02-14T06:05:15;102642.91;;;3.29;78.07
22206;BME280;11272;50.104;8.754;2023-02-14T06:07:43;102633.31;;;3.29;78.09
22206;BME280;11272;50.104;8.754;2023-02-14T06:10:19;102645.63;;;3.30;77.98
22206;BME280;11272;50.104;8.754;2023-02-14T06:12:47;102635.16;;;3.32;78.48
22206;BME280;11272;50.104;8.754;2023-02-14T06:15:13;102635.16;;;3.32;77.91
22206;BME280;11272;50.104;8.754;2023-02-14T06:17:39;102638.69;;;3.32;78.27
22206;BME280;11272;50.104;8.754;2023-02-14T06:20:06;102642.00;;;3.28;78.29
22206;BME280;11272;50.104;8.754;2023-02-14T06:22:32;102627.66;;;3.20;78.44
22206;BME280;11272;50.104;8.754;2023-02-14T06:24:57;102633.66;;;3.18;78.53
22206;BME280;11272;50.104;8.754;2023-02-14T06:27:23;102634.75;;;3.23;78.82
22206;BME280;11272;50.104;8.754;2023-02-14T06:29:48;102640.22;;;3.27;78.71
22206;BME280;11272;50.104;8.754;2023-02-14T06:32:14;102642.09;;;3.30;78.97
22206;BME280;11272;50.104;8.754;2023-02-14T06:34:39;102630.81;;;3.32;78.77
22206;BME280;11272;50.104;8.754;2023-02-14T06:37:06;102637.09;;;3.36;78.51
22206;BME280;11272;50.104;8.754;2023-02-14T06:39:32;102635.41;;;3.38;78.34
22206;BME280;11272;50.104;8.754;2023-02-14T06:41:57;102642.56;;;3.41;78.64
22206;BME280;11272;50.104;8.754;2023-02-14T06:44:23;102637.41;;;3.44;78.51
22206;BME280;11272;50.104;8.754;2023-02-14T06:46:48;102644.34;;;3.42;78.85
22206;BME280;11272;50.104;8.754;2023-02-14T06:49:14;102643.38;;;3.39;79.18
22206;BME280;11272;50.104;8.754;2023-02-14T06:51:40;102642.75;;;3.45;78.79
22206;BME280;11272;50.104;8.754;2023-02-14T06:54:05;102637.56;;;3.47;78.93
22206;BME280;11272;50.104;8.754;2023-02-14T06:56:31;102635.88;;;3.49;78.83
22206;BME280;11272;50.104;8.754;2023-02-14T06:58:56;102636.03;;;3.52;78.72
22206;BME280;11272;50.104;8.754;2023-02-14T07:01:22;102637.88;;;3.54;78.67
22206;BME280;11272;50.104;8.754;2023-02-14T07:03:48;102644.03;;;3.55;78.38
22206;BME280;11272;50.104;8.754;2023-02-14T07:06:13;102638.78;;;3.55;78.85
22206;BME280;11272;50.104;8.754;2023-02-14T07:08:39;102641.56;;;3.58;78.35
22206;BME280;11272;50.104;8.754;2023-02-14T07:11:04;102639.75;;;3.57;78.32
22206;BME280;11272;50.104;8.754;2023-02-14T07:13:30;102643.31;;;3.59;78.63
22206;BME280;11272;50.104;8.754;2023-02-14T07:15:55;102637.25;;;3.60;78.53
22206;BME280;11272;50.104;8.754;2023-02-14T07:18:21;102635.59;;;3.62;78.26
22206;BME280;11272;50.104;8.754;2023-02-14T07:20:48;102634.81;;;3.64;77.95
22206;BME280;11272;50.104;8.754;2023-02-14T07:23:14;102638.22;;;3.62;78.61
22206;BME280;11272;50.104;8.754;2023-02-14T07:25:39;102648.72;;;3.62;78.12
22206;BME280;11272;50.104;8.754;2023-02-14T07:28:05;102645.38;;;3.66;78.35
22206;BME280;11272;50.104;8.754;2023-02-14T07:30:31;102635.84;;;3.68;78.54
22206;BME280;11272;50.104;8.754;2023-02-14T07:32:56;102640.31;;;3.70;78.41
22206;BME280;11272;50.104;8.754;2023-02-14T07:35:22;102641.84;;;3.65;77.76
22206;BME280;11272;50.104;8.754;2023-02-14T07:37:51;102650.53;;;3.63;78.12
22206;BME280;11272;50.104;8.754;2023-02-14T07:40:18;102644.38;;;3.62;78.09
22206;BME280;11272;50.104;8.754;2023-02-14T07:42:52;102643.47;;;3.62;77.63
22206;BME280;11272;50.104;8.754;2023-02-14T07:45:19;102641.75;;;3.62;77.75
22206;BME280;11272;50.104;8.754;2023-02-14T07:47:47;102640.06;;;3.64;77.83
22206;BME280;11272;50.104;8.754;2023-02-14T07:50:13;102645.38;;;3.66;77.51
22206;BME280;11272;50.104;8.754;2023-02-14T07:52:39;102645.38;;;3.66;77.28
22206;BME280;11272;50.104;8.754;2023-02-14T07:55:05;102638.34;;;3.65;77.63
22206;BME280;11272;50.104;8.754;2023-02-14T07:57:32;102647.03;;;3.64;77.50
22206;BME280;11272;50.104;8.754;2023-02-14T07:59:58;102647.03;;;3.64;77.50
22206;BME280;11272;50.104;8.754;2023-02-14T08:02:24;102645.94;;;3.59;77.21
22206;BME280;11272;50.104;8.754;2023-02-14T08:04:49;102646.53;;;3.52;77.74
22206;BME280;11272;50.104;8.754;2023-02-14T08:07:15;102646.28;;;3.46;77.64
22206;BME280;11272;50.104;8.754;2023-02-14T08:09:41;102641.13;;;3.49;77.84
22206;BME280;11272;50.104;8.754;2023-02-14T08:12:06;102646.72;;;3.56;77.65
22206;BME280;11272;50.104;8.754;2023-02-14T08:14:50;102638.94;;;3.58;77.14
22206;BME280;11272;50.104;8.754;2023-02-14T08:17:16;102647.75;;;3.60;77.51
22206;BME280;11272;50.104;8.754;2023-02-14T08:19:41;102632.69;;;3.56;76.92
22206;BME280;11272;50.104;8.754;2023-02-14T08:22:07;102637.81;;;3.53;77.24
22206;BME280;11272;50.104;8.754;2023-02-14T08:24:33;102642.38;;;3.57;77.40
22206;BME280;11272;50.104;8.754;2023-02-14T08:26:58;102640.84;;;3.62;77.33
22206;BME280;11272;50.104;8.754;2023-02-14T08:29:24;102634.97;;;3.67;77.05
22206;BME280;11272;50.104;8.754;2023-02-14T08:31:53;102635.06;;;3.70;76.78
22206;BME280;11272;50.104;8.754;2023-02-14T08:34:19;102649.22;;;3.74;76.73
22206;BME280;11272;50.104;8.754;2023-02-14T08:36:46;102637.94;;;3.76;77.35
22206;BME280;11272;50.104;8.754;2023-02-14T08:39:13;102642.47;;;3.79;76.62
22206;BME280;11272;50.104;8.754;2023-02-14T08:41:38;102637.25;;;3.80;76.65
22206;BME280;11272;50.104;8.754;2023-02-14T08:44:04;102641.56;;;3.78;77.09
22206;BME280;11272;50.104;8.754;2023-02-14T08:46:31;102640.84;;;3.83;76.97
22206;BME280;11272;50.104;8.754;2023-02-14T08:48:56;102643.72;;;3.89;77.15
22206;BME280;11272;50.104;8.754;2023-02-14T08:51:23;102641.13;;;3.90;76.53
22206;BME280;11272;50.104;8.754;2023-02-14T08:53:50;102641.13;;;3.90;77.10
22206;BME280;11272;50.104;8.754;2023-02-14T08:56:16;102641.66;;;3.81;76.74
22206;BME280;11272;50.104;8.754;2023-02-14T08:58:42;102643.22;;;3.76;76.83
22206;BME280;11272;50.104;8.754;2023-02-14T09:01:12;102646.66;;;3.75;77.14
22206;BME280;11272;50.104;8.754;2023-02-14T09:03:38;102638.59;;;3.71;76.98
22206;BME280;11272;50.104;8.754;2023-02-14T09:06:06;102638.72;;;3.74;77.17
22206;BME280;11272;50.104;8.754;2023-02-14T09:08:31;102636.97;;;3.74;77.27
22206;BME280;11272;50.104;8.754;2023-02-14T09:11:10;102636.22;;;3.77;76.71
22206;BME280;11272;50.104;8.754;2023-02-14T09:13:36;102635.66;;;3.84;77.21
22206;BME280;11272;50.104;8.754;2023-02-14T09:16:04;102633.25;;;3.90;76.66
22206;BME280;11272;50.104;8.754;2023-02-14T09:18:29;102631.66;;;3.94;76.55
22206;BME280;11272;50.104;8.754;2023-02-14T09:20:55;102626.59;;;3.98;76.26
22206;BME280;11272;50.104;8.754;2023-02-14T09:23:20;102626.72;;;4.01;76.81
22206;BME280;11272;50.104;8.754;2023-02-14T09:25:46;102623.31;;;4.04;76.51
22206;BME280;11272;50.104;8.754;2023-02-14T09:28:12;102623.19;;;4.01;76.46
22206;BME280;11272;50.104;8.754;2023-02-14T09:30:37;102622.41;;;4.03;76.46
22206;BME280;11272;50.104;8.754;2023-02-14T09:33:03;102632.94;;;4.03;76.67
22206;BME280;11272;50.104;8.754;2023-02-14T09:35:30;102624.81;;;3.97;76.54
22206;BME280;11272;50.104;8.754;2023-02-14T09:37:56;102625.63;;;3.96;76.89
22206;BME280;11272;50.104;8.754;2023-02-14T09:40:22;102628.97;;;3.92;76.63
22206;BME280;11272;50.104;8.754;2023-02-14T09:43:02;102627.50;;;3.99;76.73
22206;BME280;11272;50.104;8.754;2023-02-14T09:45:32;102620.13;;;4.11;77.24
22206;BME280;11272;50.104;8.754;2023-02-14T09:48:08;102628.44;;;4.21;76.65
22206;BME280;11272;50.104;8.754;2023-02-14T09:50:50;102632.00;;;4.23;76.88
22206;BME280;11272;50.104;8.754;2023-02-14T09:53:29;102630.34;;;4.26;76.77
22206;BME280;11272;50.104;8.754;2023-02-14T09:56:19;102624.25;;;4.27;76.26
22206;BME280;11272;50.104;8.754;2023-02-14T10:01:50;102616.78;;;4.37;76.31
22206;BME280;11272;50.104;8.754;2023-02-14T10:04:39;102621.25;;;4.40;76.03
22206;BME280;11272;50.104;8.754;2023-02-14T10:07:25;102623.88;;;4.40;76.32
22206;BME280;11272;50.104;8.754;2023-02-14T10:12:37;102622.38;;;4.46;76.59
22206;BME280;11272;50.104;8.754;2023-02-14T10:15:13;102619.81;;;4.48;76.14
22206;BME280;11272;50.104;8.754;2023-02-14T10:17:43;102622.56;;;4.51;76.29
22206;BME280;11272;50.104;8.754;2023-02-14T10:20:22;102628.78;;;4.53;75.59
22206;BME280;11272;50.104;8.754;2023-02-14T10:23:03;102631.47;;;4.54;75.90
22206;BME280;11272;50.104;8.754;2023-02-14T10:25:39;102620.25;;;4.58;75.58
22206;BME280;11272;50.104;8.754;2023-02-14T10:28:08;102630.09;;;4.64;75.76
22206;BME280;11272;50.104;8.754;2023-02-14T10:30:37;102618.78;;;4.66;75.39
22206;BME280;11272;50.104;8.754;2023-02-14T10:33:16;102632.09;;;4.71;74.96
22206;BME280;11272;50.104;8.754;2023-02-14T10:35:47;102625.28;;;4.76;75.66
22206;BME280;11272;50.104;8.754;2023-02-14T10:38:56;102627.22;;;4.80;75.07
22206;BME280;11272;50.104;8.754;2023-02-14T10:52:09;102601.81;;;4.82;74.90
22206;BME280;11272;50.104;8.754;2023-02-14T10:54:45;102601.09;;;4.86;74.77
22206;BME280;11272;50.104;8.754;2023-02-14T10:59:53;102594.47;;;4.97;74.97
22206;BME280;11272;50.104;8.754;2023-02-14T11:02:30;102592.13;;;5.05;74.51
22206;BME280;11272;50.104;8.754;2023-02-14T11:04:58;102596.00;;;5.15;74.67
22206;BME280;11272;50.104;8.754;2023-02-14T11:07:24;102585.75;;;5.24;74.22
22206;BME280;11272;50.104;8.754;2023-02-14T11:09:49;102574.53;;;5.28;73.90
22206;BME280;11272;50.104;8.754;2023-02-14T11:12:38;102578.22;;;5.34;73.67
22206;BME280;11272;50.104;8.754;2023-02-14T11:15:10;102574.72;;;5.34;73.51
22206;BME280;11272;50.104;8.754;2023-02-14T11:17:41;102580.84;;;5.33;73.22
22206;BME280;11272;50.104;8.754;2023-02-14T11:20:22;102564.19;;;5.34;73.40
22206;BME280;11272;50.104;8.754;2023-02-14T11:22:49;102574.91;;;5.40;72.97
22206;BME280;11272;50.104;8.754;2023-02-14T11:25:26;102563.75;;;5.47;72.72
22206;BME280;11272;50.104;8.754;2023-02-14T11:28:14;102570.28;;;5.58;72.96
22206;BME280;11272;50.104;8.754;2023-02-14T11:30:44;102562.53;;;5.63;72.88
22206;BME280;11272;50.104;8.754;2023-02-14T11:33:22;102553.72;;;5.62;72.72
22206;BME280;11272;50.104;8.754;2023-02-14T11:35:53;102545.25;;;5.72;72.61
22206;BME280;11272;50.104;8.754;2023-02-14T11:38:31;102554.03;;;5.71;72.37
22206;BME280;11272;50.104;8.754;2023-02-14T11:41:00;102542.06;;;5.56;72.42
22206;BME280;11272;50.104;8.754;2023-02-14T11:43:40;102542.13;;;5.57;72.44
22206;BME280;11272;50.104;8.754;2023-02-14T11:51:29;102537.69;;;5.83;71.98
22206;BME280;11272;50.104;8.754;2023-02-14T11:53:58;102533.66;;;5.93;71.61
22206;BME280;11272;50.104;8.754;2023-02-14T11:59:24;102525.91;;;5.99;71.20
22206;BME280;11272;50.104;8.754;2023-02-14T12:01:52;102524.31;;;6.04;71.22
22206;BME280;11272;50.104;8.754;2023-02-14T12:04:23;102520.94;;;6.08;70.73
22206;BME280;11272;50.104;8.754;2023-02-14T12:06:51;102521.75;;;6.05;70.49
22206;BME280;11272;50.104;8.754;2023-02-14T12:11:54;102519.78;;;5.98;70.47
22206;BME280;11272;50.104;8.754;2023-02-14T12:14:22;102512.84;;;6.02;70.09
22206;BME280;11272;50.104;8.754;2023-02-14T12:16:59;102510.97;;;5.98;69.94
22206;BME280;11272;50.104;8.754;2023-02-14T12:19:43;102509.72;;;5.86;70.18
22206;BME280;11272;50.104;8.754;2023-02-14T12:22:15;102505.59;;;5.95;70.15
22206;BME280;11272;50.104;8.754;2023-02-14T12:27:43;102494.19;;;5.96;69.85
22206;BME280;11272;50.104;8.754;2023-02-14T12:30:15;102492.53;;;5.99;69.92
22206;BME280;11272;50.104;8.754;2023-02-14T12:32:52;102494.66;;;6.11;69.90
22206;BME280;11272;50.104;8.754;2023-02-14T12:46:23;102469.09;;;6.69;69.10
22206;BME280;11272;50.104;8.754;2023-02-14T12:49:19;102458.81;;;6.80;68.62
22206;BME280;11272;50.104;8.754;2023-02-14T12:52:05;102461.56;;;6.85;68.40
22206;BME280;11272;50.104;8.754;2023-02-14T12:58:01;102456.78;;;7.03;68.05
22206;BME280;11272;50.104;8.754;2023-02-14T13:00:43;102457.72;;;7.05;67.62
22206;BME280;11272;50.104;8.754;2023-02-14T13:06:00;102449.13;;;7.13;67.38
22206;BME280;11272;50.104;8.754;2023-02-14T13:16:59;102427.47;;;7.28;66.44
22206;BME280;11272;50.104;8.754;2023-02-14T13:19:55;102429.25;;;7.29;66.60
22206;BME280;11272;50.104;8.754;2023-02-14T13:22:26;102423.00;;;7.26;66.43
22206;BME280;11272;50.104;8.754;2023-02-14T13:25:03;102425.75;;;7.30;66.32
22206;BME280;11272;50.104;8.754;2023-02-14T13:27:36;102413.72;;;7.43;66.50
22206;BME280;11272;50.104;8.754;2023-02-14T13:30:28;102410.41;;;7.51;65.87
22206;BME280;11272;50.104;8.754;2023-02-14T13:33:00;102412.41;;;7.61;66.00
22206;BME280;11272;50.104;8.754;2023-02-14T13:35:29;102409.16;;;7.73;65.32
22206;BME280;11272;50.104;8.754;2023-02-14T13:38:07;102411.09;;;7.82;65.37
22206;BME280;11272;50.104;8.754;2023-02-14T13:40:37;102403.38;;;7.92;65.22
22206;BME280;11272;50.104;8.754;2023-02-14T13:43:03;102396.41;;;7.97;64.47
22206;BME280;11272;50.104;8.754;2023-02-14T13:51:09;102395.03;;;9.09;63.51
22206;BME280;11272;50.104;8.754;2023-02-14T13:53:41;102385.78;;;9.39;62.50
22206;BME280;11272;50.104;8.754;2023-02-14T13:58:45;102388.03;;;9.13;61.93
22206;BME280;11272;50.104;8.754;2023-02-14T14:01:34;102373.19;;;9.24;61.64
22206;BME280;11272;50.104;8.754;2023-02-14T14:19:59;102358.34;;;10.84;57.55
22206;BME280;11272;50.104;8.754;2023-02-14T14:22:26;102355.81;;;11.00;57.40
22206;BME280;11272;50.104;8.754;2023-02-14T14:24:56;102361.31;;;11.28;56.57
22206;BME280;11272;50.104;8.754;2023-02-14T14:27:34;102348.22;;;11.65;55.71
22206;BME280;11272;50.104;8.754;2023-02-14T14:30:06;102345.50;;;11.48;54.96
22206;BME280;11272;50.104;8.754;2023-02-14T14:32:43;102343.63;;;11.32;55.31
22206;BME280;11272;50.104;8.754;2023-02-14T14:37:53;102339.00;;;11.08;55.35
22206;BME280;11272;50.104;8.754;2023-02-14T14:40:29;102336.28;;;10.94;55.03
22206;BME280;11272;50.104;8.754;2023-02-14T14:43:13;102342.28;;;10.72;54.73
22206;BME280;11272;50.104;8.754;2023-02-14T14:45:44;102336.72;;;10.48;55.62
22206;BME280;11272;50.104;8.754;2023-02-14T14:48:15;102328.44;;;10.16;55.47
22206;BME280;11272;50.104;8.754;2023-02-14T14:50:46;102336.91;;;9.86;55.85
22206;BME280;11272;50.104;8.754;2023-02-14T14:55:49;102329.25;;;9.43;56.39
22206;BME280;11272;50.104;8.754;2023-02-14T14:58:37;102324.47;;;9.19;56.77
22206;BME280;11272;50.104;8.754;2023-02-14T15:01:04;102325.06;;;8.98;56.86
22206;BME280;11272;50.104;8.754;2023-02-14T15:03:30;102328.44;;;8.88;57.78
22206;BME280;11272;50.104;8.754;2023-02-14T15:06:18;102323.91;;;8.81;57.90
22206;BME280;11272;50.104;8.754;2023-02-14T15:08:44;102316.84;;;8.80;57.87
22206;BME280;11272;50.104;8.754;2023-02-14T15:14:21;102301.47;;;8.61;58.04
22206;BME280;11272;50.104;8.754;2023-02-14T15:16:55;102303.13;;;8.53;58.27
22206;BME280;11272;50.104;8.754;2023-02-14T15:19:27;102308.25;;;8.42;58.11
22206;BME280;11272;50.104;8.754;2023-02-14T15:24:49;102305.13;;;8.19;58.59
22206;BME280;11272;50.104;8.754;2023-02-14T15:27:22;102304.97;;;8.10;59.63